sensor_id;sensor_type;location;lat;lon;timestamp;pressure;altitude;pressure_sealevel;temperature;humidity
21781;BME280;52576;53.614;9.894;2023-03-03T00:01:11;102243.28;;;0.11;88.02
21781;BME280;52576;53.614;9.894;2023-03-03T00:03:16;102233.81;;;0.13;88.27
21781;BME280;52576;53.614;9.894;2023-03-03T00:07:57;102233.81;;;0.19;88.38
21781;BME280;52576;53.614;9.894;2023-03-03T00:10:00;102234.69;;;0.23;88.55
21781;BME280;52576;53.614;9.894;2023-03-03T00:12:17;102228.66;;;0.22;88.52
21781;BME280;52576;53.614;9.894;2023-03-03T00:14:28;102232.09;;;0.23;88.52
21781;BME280;52576;53.614;9.894;2023-03-03T00:16:35;102223.50;;;0.22;88.52
21781;BME280;52576;53.614;9.894;2023-03-03T00:18:41;102222.66;;;0.23;88.64
21781;BME280;52576;53.614;9.894;2023-03-03T00:20:48;102229.53;;;0.26;88.87
21781;BME280;52576;53.614;9.894;2023-03-03T00:22:52;102223.47;;;0.28;88.69
21781;BME280;52576;53.614;9.894;2023-03-03T00:24:58;102228.63;;;0.30;88.80
21781;BME280;52576;53.614;9.894;2023-03-03T00:27:15;102228.63;;;0.28;88.85
21781;BME280;52576;53.614;9.894;2023-03-03T00:29:32;102223.47;;;0.28;88.85
21781;BME280;52576;53.614;9.894;2023-03-03T00:31:36;102226.91;;;0.27;88.92
21781;BME280;52576;53.614;9.894;2023-03-03T00:33:44;102228.66;;;0.25;88.69
21781;BME280;52576;53.614;9.894;2023-03-03T00:35:48;102225.19;;;0.26;89.07
21781;BME280;52576;53.614;9.894;2023-03-03T00:37:54;102230.34;;;0.26;88.98
21781;BME280;52576;53.614;9.894;2023-03-03T00:40:18;102235.53;;;0.23;89.02
21781;BME280;52576;53.614;9.894;2023-03-03T00:42:22;102228.66;;;0.22;89.10
21781;BME280;52576;53.614;9.894;2023-03-03T00:44:41;102226.94;;;0.21;89.06
21781;BME280;52576;53.614;9.894;2023-03-03T00:46:44;102234.69;;;0.21;89.01
21781;BME280;52576;53.614;9.894;2023-03-03T00:48:49;102231.25;;;0.21;89.13
21781;BME280;52576;53.614;9.894;2023-03-03T00:50:55;102226.09;;;0.21;89.16
21781;BME280;52576;53.614;9.894;2023-03-03T00:53:06;102230.38;;;0.20;89.16
21781;BME280;52576;53.614;9.894;2023-03-03T00:55:12;102226.94;;;0.21;89.28
21781;BME280;52576;53.614;9.894;2023-03-03T00:57:16;102232.09;;;0.21;89.21
21781;BME280;52576;53.614;9.894;2023-03-03T00:59:19;102222.66;;;0.22;89.21
21781;BME280;52576;53.614;9.894;2023-03-03T01:01:24;102229.53;;;0.21;89.36
21781;BME280;52576;53.614;9.894;2023-03-03T01:03:28;102234.69;;;0.21;89.50
21781;BME280;52576;53.614;9.894;2023-03-03T01:05:32;102226.09;;;0.21;89.27
21781;BME280;52576;53.614;9.894;2023-03-03T01:07:35;102227.81;;;0.19;89.34
21781;BME280;52576;53.614;9.894;2023-03-03T01:09:39;102233.81;;;0.18;89.30
21781;BME280;52576;53.614;9.894;2023-03-03T01:11:42;102227.81;;;0.16;89.36
21781;BME280;52576;53.614;9.894;2023-03-03T01:13:47;102232.97;;;0.14;89.34
21781;BME280;52576;53.614;9.894;2023-03-03T01:15:52;102232.97;;;0.11;89.28
21781;BME280;52576;53.614;9.894;2023-03-03T01:17:57;102230.38;;;0.08;89.38
21781;BME280;52576;53.614;9.894;2023-03-03T01:20:01;102228.66;;;0.04;89.52
21781;BME280;52576;53.614;9.894;2023-03-03T01:22:04;102230.38;;;0.02;89.34
21781;BME280;52576;53.614;9.894;2023-03-03T01:24:08;102226.09;;;-0.02;89.34
21781;BME280;52576;53.614;9.894;2023-03-03T01:26:11;102226.09;;;-0.07;89.35
21781;BME280;52576;53.614;9.894;2023-03-03T01:28:14;102222.66;;;-0.09;89.29
21781;BME280;52576;53.614;9.894;2023-03-03T01:30:18;102220.94;;;-0.11;89.36
21781;BME280;52576;53.614;9.894;2023-03-03T01:32:22;102214.91;;;-0.13;89.42
21781;BME280;52576;53.614;9.894;2023-03-03T01:34:27;102210.63;;;-0.16;89.42
21781;BME280;52576;53.614;9.894;2023-03-03T01:36:30;102205.47;;;-0.17;89.47
21781;BME280;52576;53.614;9.894;2023-03-03T01:38:34;102195.16;;;-0.20;89.35
21781;BME280;52576;53.614;9.894;2023-03-03T01:40:38;102199.44;;;-0.22;89.27
21781;BME280;52576;53.614;9.894;2023-03-03T01:42:41;102204.59;;;-0.22;89.42
21781;BME280;52576;53.614;9.894;2023-03-03T01:44:45;102202.00;;;-0.24;89.51
21781;BME280;52576;53.614;9.894;2023-03-03T01:46:53;102202.00;;;-0.24;89.36
21781;BME280;52576;53.614;9.894;2023-03-03T01:49:00;102192.56;;;-0.23;89.45
21781;BME280;52576;53.614;9.894;2023-03-03T01:51:14;102201.16;;;-0.21;89.51
21781;BME280;52576;53.614;9.894;2023-03-03T01:53:23;102197.72;;;-0.20;89.59
21781;BME280;52576;53.614;9.894;2023-03-03T01:55:33;102195.16;;;-0.19;89.66
21781;BME280;52576;53.614;9.894;2023-03-03T01:57:40;102191.72;;;-0.18;89.61
21781;BME280;52576;53.614;9.894;2023-03-03T01:59:48;102199.44;;;-0.16;89.72
21781;BME280;52576;53.614;9.894;2023-03-03T02:01:53;102196.00;;;-0.18;89.74
21781;BME280;52576;53.614;9.894;2023-03-03T02:03:56;102199.44;;;-0.19;89.68
21781;BME280;52576;53.614;9.894;2023-03-03T02:06:03;102196.88;;;-0.24;89.81
21781;BME280;52576;53.614;9.894;2023-03-03T02:08:11;102199.47;;;-0.28;89.67
21781;BME280;52576;53.614;9.894;2023-03-03T02:10:19;102199.47;;;-0.31;89.68
21781;BME280;52576;53.614;9.894;2023-03-03T02:12:27;102198.59;;;-0.33;89.78
21781;BME280;52576;53.614;9.894;2023-03-03T02:14:33;102200.31;;;-0.34;89.80
21781;BME280;52576;53.614;9.894;2023-03-03T02:16:37;102190.88;;;-0.33;89.74
21781;BME280;52576;53.614;9.894;2023-03-03T02:18:41;102197.75;;;-0.32;89.79
21781;BME280;52576;53.614;9.894;2023-03-03T02:20:51;102194.31;;;-0.35;89.81
21781;BME280;52576;53.614;9.894;2023-03-03T02:23:24;102194.31;;;-0.35;89.71
21781;BME280;52576;53.614;9.894;2023-03-03T02:25:33;102195.16;;;-0.36;89.69
21781;BME280;52576;53.614;9.894;2023-03-03T02:27:40;102193.44;;;-0.37;89.77
21781;BME280;52576;53.614;9.894;2023-03-03T02:29:44;102196.00;;;-0.37;89.90
21781;BME280;52576;53.614;9.894;2023-03-03T02:31:47;102193.44;;;-0.37;89.89
21781;BME280;52576;53.614;9.894;2023-03-03T02:33:52;102196.88;;;-0.38;89.82
21781;BME280;52576;53.614;9.894;2023-03-03T02:35:55;102196.88;;;-0.41;89.75
21781;BME280;52576;53.614;9.894;2023-03-03T02:38:10;102197.72;;;-0.45;89.83
21781;BME280;52576;53.614;9.894;2023-03-03T02:40:18;102194.28;;;-0.47;89.81
21781;BME280;52576;53.614;9.894;2023-03-03T02:42:26;102198.56;;;-0.47;89.77
21781;BME280;52576;53.614;9.894;2023-03-03T02:44:34;102192.56;;;-0.48;89.91
21781;BME280;52576;53.614;9.894;2023-03-03T02:46:38;102186.53;;;-0.48;89.79
21781;BME280;52576;53.614;9.894;2023-03-03T02:48:42;102189.97;;;-0.48;89.92
21781;BME280;52576;53.614;9.894;2023-03-03T02:50:45;102194.28;;;-0.47;89.93
21781;BME280;52576;53.614;9.894;2023-03-03T02:52:48;102190.84;;;-0.46;89.94
21781;BME280;52576;53.614;9.894;2023-03-03T02:54:52;102196.84;;;-0.47;89.90
21781;BME280;52576;53.614;9.894;2023-03-03T02:56:56;102192.56;;;-0.48;90.01
21781;BME280;52576;53.614;9.894;2023-03-03T02:59:01;102190.84;;;-0.49;89.85
21781;BME280;52576;53.614;9.894;2023-03-03T03:01:09;102197.69;;;-0.51;89.68
21781;BME280;52576;53.614;9.894;2023-03-03T03:03:12;102189.13;;;-0.53;89.97
21781;BME280;52576;53.614;9.894;2023-03-03T03:05:16;102202.00;;;-0.53;89.90
21781;BME280;52576;53.614;9.894;2023-03-03T03:07:19;102204.59;;;-0.53;89.97
21781;BME280;52576;53.614;9.894;2023-03-03T03:09:23;102204.59;;;-0.53;89.89
21781;BME280;52576;53.614;9.894;2023-03-03T03:11:28;102207.16;;;-0.56;90.01
21781;BME280;52576;53.614;9.894;2023-03-03T03:13:32;102208.00;;;-0.60;89.93
21781;BME280;52576;53.614;9.894;2023-03-03T03:15:36;102213.13;;;-0.63;90.03
21781;BME280;52576;53.614;9.894;2023-03-03T03:17:41;102214.88;;;-0.62;89.83
21781;BME280;52576;53.614;9.894;2023-03-03T03:19:46;102214.00;;;-0.64;89.80
21781;BME280;52576;53.614;9.894;2023-03-03T03:21:49;102206.28;;;-0.64;89.92
21781;BME280;52576;53.614;9.894;2023-03-03T03:23:52;102206.28;;;-0.64;90.00
21781;BME280;52576;53.614;9.894;2023-03-03T03:25:56;102210.56;;;-0.63;89.90
21781;BME280;52576;53.614;9.894;2023-03-03T03:28:02;102214.88;;;-0.62;90.09
21781;BME280;52576;53.614;9.894;2023-03-03T03:30:07;102208.00;;;-0.60;90.10
21781;BME280;52576;53.614;9.894;2023-03-03T03:32:10;102211.44;;;-0.61;89.95
21781;BME280;52576;53.614;9.894;2023-03-03T03:34:16;102211.44;;;-0.61;90.00
21781;BME280;52576;53.614;9.894;2023-03-03T03:36:19;102199.41;;;-0.59;90.06
21781;BME280;52576;53.614;9.894;2023-03-03T03:38:23;102200.28;;;-0.58;90.06
21781;BME280;52576;53.614;9.894;2023-03-03T03:40:27;102190.84;;;-0.58;90.08
21781;BME280;52576;53.614;9.894;2023-03-03T03:42:30;102196.84;;;-0.56;90.13
21781;BME280;52576;53.614;9.894;2023-03-03T03:44:33;102204.59;;;-0.56;90.23
21781;BME280;52576;53.614;9.894;2023-03-03T03:46:37;102207.16;;;-0.56;90.08
21781;BME280;52576;53.614;9.894;2023-03-03T03:48:41;102221.75;;;-0.58;90.15
21781;BME280;52576;53.614;9.894;2023-03-03T03:50:48;102200.28;;;-0.58;90.13
21781;BME280;52576;53.614;9.894;2023-03-03T03:52:52;102202.00;;;-0.60;90.03
21781;BME280;52576;53.614;9.894;2023-03-03T03:54:56;102212.28;;;-0.62;90.13
21781;BME280;52576;53.614;9.894;2023-03-03T03:56:59;102204.56;;;-0.65;89.90
21781;BME280;52576;53.614;9.894;2023-03-03T03:59:04;102201.13;;;-0.67;90.41
21781;BME280;52576;53.614;9.894;2023-03-03T04:01:08;102195.94;;;-0.70;89.99
21781;BME280;52576;53.614;9.894;2023-03-03T04:03:16;102195.94;;;-0.73;89.87
21781;BME280;52576;53.614;9.894;2023-03-03T04:05:22;102190.78;;;-0.76;89.86
21781;BME280;52576;53.614;9.894;2023-03-03T04:07:27;102200.22;;;-0.81;89.85
21781;BME280;52576;53.614;9.894;2023-03-03T04:09:30;102189.91;;;-0.86;89.87
21781;BME280;52576;53.614;9.894;2023-03-03T04:11:33;102187.31;;;-0.90;89.83
21781;BME280;52576;53.614;9.894;2023-03-03T04:13:38;102183.88;;;-0.92;89.95
21781;BME280;52576;53.614;9.894;2023-03-03T04:15:43;102183.88;;;-0.92;89.74
21781;BME280;52576;53.614;9.894;2023-03-03T04:17:46;102175.31;;;-0.91;89.90
21781;BME280;52576;53.614;9.894;2023-03-03T04:19:51;102192.47;;;-0.90;89.89
21781;BME280;52576;53.614;9.894;2023-03-03T04:21:55;102191.63;;;-0.88;89.95
21781;BME280;52576;53.614;9.894;2023-03-03T04:23:59;102183.91;;;-0.86;89.96
21781;BME280;52576;53.614;9.894;2023-03-03T04:26:04;102184.78;;;-0.84;90.04
21781;BME280;52576;53.614;9.894;2023-03-03T04:28:08;102185.63;;;-0.84;90.13
21781;BME280;52576;53.614;9.894;2023-03-03T04:30:13;102182.22;;;-0.81;90.19
21781;BME280;52576;53.614;9.894;2023-03-03T04:32:20;102179.63;;;-0.81;90.10
21781;BME280;52576;53.614;9.894;2023-03-03T04:34:23;102194.22;;;-0.80;90.13
21781;BME280;52576;53.614;9.894;2023-03-03T04:36:26;102193.34;;;-0.76;90.26
21781;BME280;52576;53.614;9.894;2023-03-03T04:38:30;102194.22;;;-0.74;90.33
21781;BME280;52576;53.614;9.894;2023-03-03T04:40:34;102192.50;;;-0.72;90.29
21781;BME280;52576;53.614;9.894;2023-03-03T04:42:38;102187.38;;;-0.69;90.35
21781;BME280;52576;53.614;9.894;2023-03-03T04:44:43;102195.97;;;-0.67;90.29
21781;BME280;52576;53.614;9.894;2023-03-03T04:46:47;102179.66;;;-0.66;90.21
21781;BME280;52576;53.614;9.894;2023-03-03T04:48:50;102172.78;;;-0.67;90.24
21781;BME280;52576;53.614;9.894;2023-03-03T04:50:54;102177.94;;;-0.67;90.39
21781;BME280;52576;53.614;9.894;2023-03-03T04:52:57;102180.50;;;-0.67;90.37
21781;BME280;52576;53.614;9.894;2023-03-03T04:55:01;102185.66;;;-0.67;90.38
21781;BME280;52576;53.614;9.894;2023-03-03T04:57:06;102187.38;;;-0.66;90.22
21781;BME280;52576;53.614;9.894;2023-03-03T04:59:10;102186.53;;;-0.66;90.33
21781;BME280;52576;53.614;9.894;2023-03-03T05:01:14;102196.81;;;-0.66;90.29
21781;BME280;52576;53.614;9.894;2023-03-03T05:03:18;102187.38;;;-0.66;90.42
21781;BME280;52576;53.614;9.894;2023-03-03T05:05:21;102194.25;;;-0.65;90.40
21781;BME280;52576;53.614;9.894;2023-03-03T05:07:25;102185.66;;;-0.64;90.43
21781;BME280;52576;53.614;9.894;2023-03-03T05:09:28;102193.41;;;-0.62;90.45
21781;BME280;52576;53.614;9.894;2023-03-03T05:11:31;102187.38;;;-0.63;90.51
21781;BME280;52576;53.614;9.894;2023-03-03T05:13:36;102190.84;;;-0.61;90.47
21781;BME280;52576;53.614;9.894;2023-03-03T05:15:39;102193.41;;;-0.61;90.28
21781;BME280;52576;53.614;9.894;2023-03-03T05:17:44;102192.56;;;-0.60;90.58
21781;BME280;52576;53.614;9.894;2023-03-03T05:19:47;102191.69;;;-0.57;90.33
21781;BME280;52576;53.614;9.894;2023-03-03T05:21:50;102199.44;;;-0.56;90.30
21781;BME280;52576;53.614;9.894;2023-03-03T05:23:53;102192.56;;;-0.57;90.33
21781;BME280;52576;53.614;9.894;2023-03-03T05:25:57;102194.28;;;-0.57;90.34
21781;BME280;52576;53.614;9.894;2023-03-03T05:28:00;102188.28;;;-0.56;90.29
21781;BME280;52576;53.614;9.894;2023-03-03T05:30:06;102193.41;;;-0.56;90.39
21781;BME280;52576;53.614;9.894;2023-03-03T05:32:09;102196.00;;;-0.58;90.35
21781;BME280;52576;53.614;9.894;2023-03-03T05:34:13;102189.13;;;-0.59;90.36
21781;BME280;52576;53.614;9.894;2023-03-03T05:36:16;102192.56;;;-0.60;90.28
21781;BME280;52576;53.614;9.894;2023-03-03T05:38:20;102194.28;;;-0.59;90.32
21781;BME280;52576;53.614;9.894;2023-03-03T05:40:23;102189.97;;;-0.60;90.40
21781;BME280;52576;53.614;9.894;2023-03-03T05:42:27;102198.56;;;-0.62;90.35
21781;BME280;52576;53.614;9.894;2023-03-03T05:44:30;102202.84;;;-0.64;90.39
21781;BME280;52576;53.614;9.894;2023-03-03T05:46:35;102202.84;;;-0.66;90.34
21781;BME280;52576;53.614;9.894;2023-03-03T05:48:38;102206.25;;;-0.67;90.23
21781;BME280;52576;53.614;9.894;2023-03-03T05:50:41;102203.69;;;-0.69;90.26
21781;BME280;52576;53.614;9.894;2023-03-03T05:52:46;102196.81;;;-0.66;90.36
21781;BME280;52576;53.614;9.894;2023-03-03T05:54:50;102189.09;;;-0.65;90.34
21781;BME280;52576;53.614;9.894;2023-03-03T05:56:53;102202.84;;;-0.64;90.32
21781;BME280;52576;53.614;9.894;2023-03-03T05:58:58;102201.13;;;-0.64;90.40
21781;BME280;52576;53.614;9.894;2023-03-03T06:01:01;102185.69;;;-0.61;90.35
21781;BME280;52576;53.614;9.894;2023-03-03T06:03:06;102197.69;;;-0.60;90.29
21781;BME280;52576;53.614;9.894;2023-03-03T06:05:09;102201.13;;;-0.59;90.47
21781;BME280;52576;53.614;9.894;2023-03-03T06:07:13;102195.13;;;-0.60;90.29
21781;BME280;52576;53.614;9.894;2023-03-03T06:09:16;102192.56;;;-0.60;90.30
21781;BME280;52576;53.614;9.894;2023-03-03T06:11:19;102202.84;;;-0.63;90.42
21781;BME280;52576;53.614;9.894;2023-03-03T06:13:23;102213.13;;;-0.63;90.34
21781;BME280;52576;53.614;9.894;2023-03-03T06:15:26;102219.16;;;-0.64;90.37
21781;BME280;52576;53.614;9.894;2023-03-03T06:17:29;102226.88;;;-0.64;90.47
21781;BME280;52576;53.614;9.894;2023-03-03T06:19:35;102229.44;;;-0.65;90.44
21781;BME280;52576;53.614;9.894;2023-03-03T06:21:38;102235.44;;;-0.65;90.31
21781;BME280;52576;53.614;9.894;2023-03-03T06:23:41;102226.88;;;-0.64;90.31
21781;BME280;52576;53.614;9.894;2023-03-03T06:25:45;102228.59;;;-0.63;90.25
21781;BME280;52576;53.614;9.894;2023-03-03T06:27:48;102228.59;;;-0.60;90.46
21781;BME280;52576;53.614;9.894;2023-03-03T06:29:51;102226.91;;;-0.58;90.30
21781;BME280;52576;53.614;9.894;2023-03-03T06:31:55;102231.19;;;-0.55;90.50
21781;BME280;52576;53.614;9.894;2023-03-03T06:33:58;102231.19;;;-0.54;90.42
21781;BME280;52576;53.614;9.894;2023-03-03T06:36:03;102235.50;;;-0.53;90.50
21781;BME280;52576;53.614;9.894;2023-03-03T06:38:06;102232.03;;;-0.52;90.42
21781;BME280;52576;53.614;9.894;2023-03-03T06:40:11;102242.34;;;-0.52;90.49
21781;BME280;52576;53.614;9.894;2023-03-03T06:42:14;102242.34;;;-0.52;90.43
21781;BME280;52576;53.614;9.894;2023-03-03T06:44:17;102256.97;;;-0.52;90.59
21781;BME280;52576;53.614;9.894;2023-03-03T06:46:20;102252.66;;;-0.55;90.54
21781;BME280;52576;53.614;9.894;2023-03-03T06:48:24;102249.22;;;-0.57;90.54
21781;BME280;52576;53.614;9.894;2023-03-03T06:50:27;102244.91;;;-0.58;90.39
21781;BME280;52576;53.614;9.894;2023-03-03T06:52:32;102247.50;;;-0.59;90.48
21781;BME280;52576;53.614;9.894;2023-03-03T06:54:35;102247.47;;;-0.61;90.48
21781;BME280;52576;53.614;9.894;2023-03-03T06:56:39;102248.34;;;-0.60;90.53
21781;BME280;52576;53.614;9.894;2023-03-03T06:58:43;102247.50;;;-0.58;90.43
21781;BME280;52576;53.614;9.894;2023-03-03T07:00:53;102250.94;;;-0.54;90.43
21781;BME280;52576;53.614;9.894;2023-03-03T07:02:59;102251.78;;;-0.51;90.47
21781;BME280;52576;53.614;9.894;2023-03-03T07:05:06;102253.50;;;-0.50;90.63
21781;BME280;52576;53.614;9.894;2023-03-03T07:07:16;102244.91;;;-0.49;90.62
21781;BME280;52576;53.614;9.894;2023-03-03T07:09:23;102257.78;;;-0.49;90.51
21781;BME280;52576;53.614;9.894;2023-03-03T07:11:27;102259.50;;;-0.48;90.53
21781;BME280;52576;53.614;9.894;2023-03-03T07:13:31;102258.66;;;-0.48;90.54
21781;BME280;52576;53.614;9.894;2023-03-03T07:15:35;102263.81;;;-0.48;90.42
21781;BME280;52576;53.614;9.894;2023-03-03T07:17:42;102258.66;;;-0.47;90.53
21781;BME280;52576;53.614;9.894;2023-03-03T07:19:47;102266.41;;;-0.45;90.54
21781;BME280;52576;53.614;9.894;2023-03-03T07:21:50;102264.69;;;-0.45;90.57
21781;BME280;52576;53.614;9.894;2023-03-03T07:23:56;102279.28;;;-0.42;90.41
21781;BME280;52576;53.614;9.894;2023-03-03T07:26:01;102262.97;;;-0.40;90.56
21781;BME280;52576;53.614;9.894;2023-03-03T07:28:23;102275.00;;;-0.36;90.43
21781;BME280;52576;53.614;9.894;2023-03-03T07:30:28;102281.91;;;-0.31;90.63
21781;BME280;52576;53.614;9.894;2023-03-03T07:32:37;102281.91;;;-0.31;90.39
21781;BME280;52576;53.614;9.894;2023-03-03T07:34:44;102280.19;;;-0.29;90.52
21781;BME280;52576;53.614;9.894;2023-03-03T07:36:50;102278.47;;;-0.27;90.58
21781;BME280;52576;53.614;9.894;2023-03-03T07:38:58;102280.16;;;-0.23;90.42
21781;BME280;52576;53.614;9.894;2023-03-03T07:41:07;102282.75;;;-0.19;90.49
21781;BME280;52576;53.614;9.894;2023-03-03T07:43:28;102270.75;;;-0.15;90.43
21781;BME280;52576;53.614;9.894;2023-03-03T07:45:35;102271.63;;;-0.10;90.48
21781;BME280;52576;53.614;9.894;2023-03-03T07:47:39;102273.34;;;-0.06;90.42
21781;BME280;52576;53.614;9.894;2023-03-03T07:49:43;102269.91;;;-0.02;90.57
21781;BME280;52576;53.614;9.894;2023-03-03T07:51:47;102278.50;;;0.00;90.33
21781;BME280;52576;53.614;9.894;2023-03-03T07:54:05;102272.47;;;0.03;90.40
21781;BME280;52576;53.614;9.894;2023-03-03T07:56:30;102277.63;;;0.07;90.34
21781;BME280;52576;53.614;9.894;2023-03-03T07:58:37;102275.91;;;0.12;90.41
21781;BME280;52576;53.614;9.894;2023-03-03T08:03:31;102270.75;;;0.27;90.29
21781;BME280;52576;53.614;9.894;2023-03-03T08:05:39;102271.63;;;0.32;90.24
21781;BME280;52576;53.614;9.894;2023-03-03T08:07:43;102282.78;;;0.39;90.22
21781;BME280;52576;53.614;9.894;2023-03-03T08:09:47;102285.38;;;0.44;90.12
21781;BME280;52576;53.614;9.894;2023-03-03T08:11:56;102277.63;;;0.48;90.22
21781;BME280;52576;53.614;9.894;2023-03-03T08:14:08;102278.50;;;0.52;90.25
21781;BME280;52576;53.614;9.894;2023-03-03T08:16:29;102276.75;;;0.54;90.21
21781;BME280;52576;53.614;9.894;2023-03-03T08:18:39;102276.75;;;0.57;90.20
21781;BME280;52576;53.614;9.894;2023-03-03T08:20:46;102273.31;;;0.58;90.12
21781;BME280;52576;53.614;9.894;2023-03-03T08:22:49;102270.72;;;0.59;90.01
21781;BME280;52576;53.614;9.894;2023-03-03T08:24:52;102272.44;;;0.62;90.02
21781;BME280;52576;53.614;9.894;2023-03-03T08:26:57;102271.56;;;0.66;89.81
21781;BME280;52576;53.614;9.894;2023-03-03T08:29:00;102273.28;;;0.73;89.86
21781;BME280;52576;53.614;9.894;2023-03-03T08:31:04;102269.84;;;0.76;89.73
21781;BME280;52576;53.614;9.894;2023-03-03T08:33:23;102256.91;;;0.79;89.72
21781;BME280;52576;53.614;9.894;2023-03-03T08:35:26;102262.06;;;0.85;89.65
21781;BME280;52576;53.614;9.894;2023-03-03T08:37:30;102261.19;;;0.87;89.67
21781;BME280;52576;53.614;9.894;2023-03-03T08:39:33;102262.91;;;0.91;89.44
21781;BME280;52576;53.614;9.894;2023-03-03T08:41:37;102268.06;;;0.94;89.54
21781;BME280;52576;53.614;9.894;2023-03-03T08:43:43;102257.72;;;0.97;89.53
21781;BME280;52576;53.614;9.894;2023-03-03T08:45:47;102252.56;;;1.04;89.34
21781;BME280;52576;53.614;9.894;2023-03-03T08:47:51;102254.22;;;1.08;89.35
21781;BME280;52576;53.614;9.894;2023-03-03T08:49:56;102254.22;;;1.12;89.17
21781;BME280;52576;53.614;9.894;2023-03-03T08:51:59;102251.63;;;1.18;89.12
21781;BME280;52576;53.614;9.894;2023-03-03T08:54:03;102253.31;;;1.24;88.96
21781;BME280;52576;53.614;9.894;2023-03-03T08:56:06;102257.63;;;1.25;88.96
21781;BME280;52576;53.614;9.894;2023-03-03T08:58:11;102267.94;;;1.25;88.86
21781;BME280;52576;53.614;9.894;2023-03-03T09:00:18;102259.34;;;1.26;88.74
21781;BME280;52576;53.614;9.894;2023-03-03T09:02:21;102257.59;;;1.28;88.58
21781;BME280;52576;53.614;9.894;2023-03-03T09:04:25;102259.28;;;1.32;88.56
21781;BME280;52576;53.614;9.894;2023-03-03T09:06:28;102264.44;;;1.38;88.63
21781;BME280;52576;53.614;9.894;2023-03-03T09:08:31;102260.97;;;1.39;88.33
21781;BME280;52576;53.614;9.894;2023-03-03T09:10:35;102260.09;;;1.46;88.28
21781;BME280;52576;53.614;9.894;2023-03-03T09:12:40;102272.13;;;1.53;88.27
21781;BME280;52576;53.614;9.894;2023-03-03T09:14:45;102276.34;;;1.60;88.19
21781;BME280;52576;53.614;9.894;2023-03-03T09:16:52;102274.63;;;1.65;88.07
21781;BME280;52576;53.614;9.894;2023-03-03T09:18:56;102278.03;;;1.70;87.88
21781;BME280;52576;53.614;9.894;2023-03-03T09:20:59;102277.13;;;1.76;87.91
21781;BME280;52576;53.614;9.894;2023-03-03T09:23:23;102277.13;;;1.79;87.55
21781;BME280;52576;53.614;9.894;2023-03-03T09:25:31;102270.19;;;1.83;87.63
21781;BME280;52576;53.614;9.894;2023-03-03T09:27:36;102281.34;;;1.88;87.48
21781;BME280;52576;53.614;9.894;2023-03-03T09:29:39;102283.03;;;1.95;87.52
21781;BME280;52576;53.614;9.894;2023-03-03T09:31:44;102269.19;;;2.02;87.35
21781;BME280;52576;53.614;9.894;2023-03-03T09:33:52;102277.72;;;2.12;87.25
21781;BME280;52576;53.614;9.894;2023-03-03T09:36:03;102282.00;;;2.16;87.11
21781;BME280;52576;53.614;9.894;2023-03-03T09:38:18;102284.59;;;2.17;87.00
21781;BME280;52576;53.614;9.894;2023-03-03T09:40:42;102286.28;;;2.21;86.90
21781;BME280;52576;53.614;9.894;2023-03-03T09:42:58;102288.81;;;2.27;86.64
21781;BME280;52576;53.614;9.894;2023-03-03T09:45:40;102289.59;;;2.35;86.62
21781;BME280;52576;53.614;9.894;2023-03-03T09:47:58;102284.38;;;2.42;86.61
21781;BME280;52576;53.614;9.894;2023-03-03T09:50:12;102280.88;;;2.49;86.44
21781;BME280;52576;53.614;9.894;2023-03-03T09:52:29;102277.38;;;2.56;86.28
21781;BME280;52576;53.614;9.894;2023-03-03T09:54:45;102282.53;;;2.56;86.17
21781;BME280;52576;53.614;9.894;2023-03-03T09:57:01;102285.91;;;2.61;86.12
21781;BME280;52576;53.614;9.894;2023-03-03T09:59:16;102278.97;;;2.66;86.09
21781;BME280;52576;53.614;9.894;2023-03-03T10:01:50;102282.31;;;2.76;85.99
21781;BME280;52576;53.614;9.894;2023-03-03T10:04:05;102278.72;;;2.87;85.94
21781;BME280;52576;53.614;9.894;2023-03-03T10:06:21;102280.38;;;2.94;85.87
21781;BME280;52576;53.614;9.894;2023-03-03T10:08:40;102283.75;;;3.02;85.90
21781;BME280;52576;53.614;9.894;2023-03-03T10:10:55;102278.47;;;3.12;85.90
21781;BME280;52576;53.614;9.894;2023-03-03T10:13:11;102280.13;;;3.16;85.58
21781;BME280;52576;53.614;9.894;2023-03-03T10:15:36;102280.13;;;3.16;85.15
21781;BME280;52576;53.614;9.894;2023-03-03T10:17:48;102278.34;;;3.21;85.43
21781;BME280;52576;53.614;9.894;2023-03-03T10:20:06;102272.25;;;3.25;85.26
21781;BME280;52576;53.614;9.894;2023-03-03T10:22:19;102274.81;;;3.28;85.34
21781;BME280;52576;53.614;9.894;2023-03-03T10:24:28;102266.06;;;3.36;85.27
21781;BME280;52576;53.614;9.894;2023-03-03T10:26:53;102273.69;;;3.47;85.17
21781;BME280;52576;53.614;9.894;2023-03-03T10:29:17;102269.22;;;3.58;85.10
21781;BME280;52576;53.614;9.894;2023-03-03T10:31:33;102269.06;;;3.69;84.69
21781;BME280;52576;53.614;9.894;2023-03-03T10:33:46;102268.16;;;3.71;84.54
21781;BME280;52576;53.614;9.894;2023-03-03T10:36:09;102263.81;;;3.73;84.19
21781;BME280;52576;53.614;9.894;2023-03-03T10:38:33;102259.47;;;3.75;83.75
21781;BME280;52576;53.614;9.894;2023-03-03T10:40:42;102264.59;;;3.79;83.74
21781;BME280;52576;53.614;9.894;2023-03-03T10:43:13;102268.91;;;3.80;83.29
21781;BME280;52576;53.614;9.894;2023-03-03T10:45:43;102260.22;;;3.84;83.23
21781;BME280;52576;53.614;9.894;2023-03-03T10:48:01;102265.34;;;3.87;82.96
21781;BME280;52576;53.614;9.894;2023-03-03T10:50:16;102266.13;;;3.92;82.85
21781;BME280;52576;53.614;9.894;2023-03-03T10:52:32;102272.19;;;3.91;82.68
21781;BME280;52576;53.614;9.894;2023-03-03T10:54:48;102265.31;;;3.90;82.14
21781;BME280;52576;53.614;9.894;2023-03-03T10:56:59;102267.06;;;3.88;81.93
21781;BME280;52576;53.614;9.894;2023-03-03T10:59:15;102259.28;;;3.88;82.08
21781;BME280;52576;53.614;9.894;2023-03-03T11:01:28;102254.97;;;3.87;81.62
21781;BME280;52576;53.614;9.894;2023-03-03T11:03:57;102259.34;;;3.85;81.77
21781;BME280;52576;53.614;9.894;2023-03-03T11:06:10;102252.41;;;3.85;81.58
21781;BME280;52576;53.614;9.894;2023-03-03T11:08:20;102252.41;;;3.85;81.71
21781;BME280;52576;53.614;9.894;2023-03-03T11:10:38;102246.38;;;3.85;81.58
21781;BME280;52576;53.614;9.894;2023-03-03T11:12:53;102251.50;;;3.89;81.73
21781;BME280;52576;53.614;9.894;2023-03-03T11:15:18;102244.56;;;3.90;81.90